Time;durP1;ratioP1;P1;durP2;ratioP2;P2;SDS_P1;SDS_P2;PMS_P1;PMS_P2;Temp;Humidity;BMP_temperature;BMP_pressure;BME280_temperature;BME280_humidity;BME280_pressure;Samples;Min_cycle;Max_cycle;Signal;HPM_P1;HPM_P2
2023/10/31 00:00:28;;;;;;;24.53;21.80;;;;;;;10.86;100.00;99513.16;5048828;28;20459;-38
2023/10/31 00:02:56;;;;;;;24.27;22.00;;;;;;;10.84;100.00;99509.91;5050201;28;20439;-36
2023/10/31 00:05:25;;;;;;;23.47;21.10;;;;;;;10.84;100.00;99504.56;5049596;28;20432;-39
2023/10/31 00:07:52;;;;;;;22.90;21.13;;;;;;;10.83;100.00;99496.81;5048374;28;20817;-40
2023/10/31 00:10:20;;;;;;;23.37;21.30;;;;;;;10.84;100.00;99499.22;5049238;28;20463;-40
2023/10/31 00:12:48;;;;;;;26.27;22.60;;;;;;;10.85;100.00;99494.72;5049507;28;20816;-38
2023/10/31 00:15:16;;;;;;;23.13;20.80;;;;;;;10.84;100.00;99482.44;5050394;28;20435;-39
2023/10/31 00:17:44;;;;;;;19.30;17.70;;;;;;;10.85;100.00;99478.72;5049251;28;20501;-38
2023/10/31 00:20:11;;;;;;;20.90;19.20;;;;;;;10.86;100.00;99475.84;5050014;28;20463;-37
2023/10/31 00:22:40;;;;;;;20.60;18.80;;;;;;;10.83;100.00;99476.28;5049851;28;20435;-38
2023/10/31 00:25:09;;;;;;;20.77;18.60;;;;;;;10.83;100.00;99475.47;5049528;28;20521;-38
2023/10/31 00:27:36;;;;;;;20.80;18.97;;;;;;;10.82;100.00;99466.66;5048202;28;20454;-38
2023/10/31 00:30:06;;;;;;;23.73;19.80;;;;;;;10.82;100.00;99455.16;5052373;28;20899;-38
2023/10/31 00:32:33;;;;;;;21.57;19.57;;;;;;;10.81;100.00;99442.91;5053591;28;20450;-40
2023/10/31 00:35:01;;;;;;;19.57;17.97;;;;;;;10.82;100.00;99441.84;5051337;28;20925;-38
2023/10/31 00:37:29;;;;;;;20.57;18.80;;;;;;;10.84;100.00;99440.56;5052536;28;20455;-38
2023/10/31 00:39:58;;;;;;;21.00;19.30;;;;;;;10.83;100.00;99436.28;5052313;28;20462;-38
2023/10/31 00:42:26;;;;;;;23.90;21.57;;;;;;;10.81;100.00;99433.00;5053267;28;20435;-40
2023/10/31 00:44:53;;;;;;;21.07;19.17;;;;;;;10.78;100.00;99435.34;5053122;28;20438;-38
2023/10/31 00:47:21;;;;;;;20.97;19.10;;;;;;;10.79;100.00;99436.97;5051150;28;20451;-38
2023/10/31 00:49:49;;;;;;;20.30;18.53;;;;;;;10.80;100.00;99431.41;5052194;28;20550;-38
2023/10/31 00:52:17;;;;;;;21.03;19.03;;;;;;;10.81;100.00;99425.03;5052383;28;20435;-38
2023/10/31 00:54:45;;;;;;;19.93;18.30;;;;;;;10.80;100.00;99428.75;5052412;28;20431;-39
2023/10/31 00:57:14;;;;;;;20.03;18.27;;;;;;;10.82;100.00;99418.66;5052465;28;20871;-38
2023/10/31 00:59:41;;;;;;;22.23;20.10;;;;;;;10.78;100.00;99420.16;5042359;28;20463;-39
2023/10/31 01:02:09;;;;;;;21.33;19.00;;;;;;;10.77;100.00;99412.38;5051374;28;20438;-39
2023/10/31 01:04:37;;;;;;;21.83;19.97;;;;;;;10.72;100.00;99413.06;5052529;28;20435;-38
2023/10/31 01:07:05;;;;;;;22.63;20.63;;;;;;;10.74;100.00;99412.84;5052047;28;20451;-37
2023/10/31 01:09:33;;;;;;;23.30;21.10;;;;;;;10.78;100.00;99408.69;5052031;28;20493;-38
2023/10/31 01:12:01;;;;;;;22.47;20.20;;;;;;;10.80;100.00;99402.09;5051653;28;20442;-39
2023/10/31 01:14:30;;;;;;;21.90;19.90;;;;;;;10.79;100.00;99396.97;5051597;28;20435;-38
2023/10/31 01:16:57;;;;;;;21.33;19.33;;;;;;;10.80;100.00;99394.06;5051546;28;20512;-39
2023/10/31 01:19:25;;;;;;;23.00;18.03;;;;;;;10.83;100.00;99395.47;5051349;28;20462;-38
2023/10/31 01:21:53;;;;;;;20.67;18.93;;;;;;;10.82;100.00;99389.31;5052007;28;20503;-41
2023/10/31 01:24:21;;;;;;;20.33;18.63;;;;;;;10.81;100.00;99393.03;5051310;28;20491;-38
2023/10/31 01:26:48;;;;;;;20.87;18.20;;;;;;;10.86;100.00;99395.00;5051071;28;20447;-38
2023/10/31 01:29:16;;;;;;;18.70;17.30;;;;;;;10.87;100.00;99391.31;5050436;28;20463;-37
2023/10/31 01:31:45;;;;;;;19.53;17.70;;;;;;;10.83;100.00;99392.81;5052170;28;20502;-37
2023/10/31 01:34:27;;;;;;;21.03;19.17;;;;;;;10.82;100.00;99394.66;5051471;28;20431;-38
2023/10/31 01:36:55;;;;;;;21.00;19.00;;;;;;;10.82;100.00;99389.31;5050605;28;21071;-38
2023/10/31 01:39:22;;;;;;;21.17;18.87;;;;;;;10.81;100.00;99393.03;5050678;28;20483;-38
2023/10/31 01:41:50;;;;;;;21.50;19.43;;;;;;;10.81;100.00;99394.91;5050688;28;20530;-38
2023/10/31 01:44:18;;;;;;;20.90;19.30;;;;;;;10.76;100.00;99384.09;5050761;28;20494;-38
2023/10/31 01:46:47;;;;;;;21.70;19.83;;;;;;;10.76;100.00;99373.41;5051011;28;20978;-38
2023/10/31 01:49:16;;;;;;;21.60;19.53;;;;;;;10.78;100.00;99379.34;5051183;28;20482;-39
2023/10/31 01:51:46;;;;;;;21.83;20.03;;;;;;;10.76;100.00;99376.91;5044095;28;20444;-38
2023/10/31 01:54:15;;;;;;;23.30;21.00;;;;;;;10.78;100.00;99372.16;5051348;28;20493;-39
2023/10/31 01:56:44;;;;;;;22.60;20.60;;;;;;;10.78;100.00;99360.69;5042739;28;20487;-41
2023/10/31 01:59:12;;;;;;;24.63;22.37;;;;;;;10.79;100.00;99357.78;5051145;28;20463;-39
2023/10/31 02:01:40;;;;;;;25.93;23.37;;;;;;;10.74;100.00;99351.53;5050715;28;20434;-38
2023/10/31 02:04:10;;;;;;;23.17;21.47;;;;;;;10.73;100.00;99353.38;5051992;28;20436;-40
2023/10/31 02:06:38;;;;;;;24.77;21.10;;;;;;;10.74;100.00;99359.53;5050452;28;20505;-38
2023/10/31 02:09:07;;;;;;;22.90;20.63;;;;;;;10.73;100.00;99344.56;5050425;28;20485;-38
2023/10/31 02:11:34;;;;;;;21.33;19.40;;;;;;;10.76;100.00;99349.44;5049743;28;20459;-39
2023/10/31 02:14:02;;;;;;;21.83;19.70;;;;;;;10.73;100.00;99349.88;5050925;28;20470;-38
2023/10/31 02:16:30;;;;;;;21.93;20.13;;;;;;;10.67;100.00;99345.47;5050666;28;20809;-38
2023/10/31 02:18:57;;;;;;;23.80;21.53;;;;;;;10.67;100.00;99345.47;5049835;28;20509;-38
2023/10/31 02:21:28;;;;;;;23.73;21.63;;;;;;;10.70;100.00;99329.03;5050394;28;20518;-39
2023/10/31 02:23:59;;;;;;;24.27;20.63;;;;;;;10.71;100.00;99325.31;5050951;28;20527;-38
2023/10/31 02:26:30;;;;;;;27.87;21.43;;;;;;;10.70;100.00;99319.16;5050265;28;20470;-38
2023/10/31 02:28:58;;;;;;;23.90;21.70;;;;;;;10.71;100.00;99317.31;5049838;28;21016;-38
2023/10/31 02:31:26;;;;;;;24.20;21.97;;;;;;;10.71;100.00;99312.00;5050029;28;20489;-38
2023/10/31 02:33:55;;;;;;;26.40;23.43;;;;;;;10.70;100.00;99313.03;5050994;28;20427;-38
2023/10/31 02:36:23;;;;;;;23.87;21.47;;;;;;;10.71;100.00;99315.47;5049927;28;20470;-38
2023/10/31 02:38:50;;;;;;;22.23;20.23;;;;;;;10.74;100.00;99311.53;5050214;28;20462;-38
2023/10/31 02:41:20;;;;;;;23.47;21.17;;;;;;;10.75;100.00;99305.94;5050161;28;20459;-38
2023/10/31 02:43:48;;;;;;;24.00;21.73;;;;;;;10.74;100.00;99300.88;5049423;28;20480;-40
2023/10/31 02:46:16;;;;;;;23.47;20.93;;;;;;;10.77;100.00;99301.22;5049343;28;20438;-38
2023/10/31 02:48:43;;;;;;;23.37;21.07;;;;;;;10.77;100.00;99303.06;5049038;28;20480;-38
2023/10/31 02:51:12;;;;;;;23.80;21.70;;;;;;;10.78;100.00;99300.16;5049586;28;21040;-38
2023/10/31 02:53:39;;;;;;;23.37;21.10;;;;;;;10.78;100.00;99300.16;5049039;28;20493;-38
2023/10/31 02:56:08;;;;;;;23.97;21.57;;;;;;;10.76;100.00;99299.56;5050074;28;20950;-38
2023/10/31 02:58:37;;;;;;;23.23;21.03;;;;;;;10.76;100.00;99296.09;5048916;28;20427;-39
2023/10/31 03:01:05;;;;;;;24.03;21.83;;;;;;;10.73;100.00;99293.91;5050259;28;20780;-39
2023/10/31 03:03:32;;;;;;;24.03;22.20;;;;;;;10.73;100.00;99293.91;5049265;28;20526;-38
2023/10/31 03:06:00;;;;;;;25.47;23.10;;;;;;;10.73;100.00;99289.38;5050579;28;20439;-39
2023/10/31 03:08:28;;;;;;;24.97;22.70;;;;;;;10.75;100.00;99281.94;5049024;28;20458;-39
2023/10/31 03:10:56;;;;;;;24.87;22.67;;;;;;;10.78;100.00;99291.38;5049522;28;20820;-38
2023/10/31 03:13:24;;;;;;;23.90;21.70;;;;;;;10.75;100.00;99287.28;5049547;28;20453;-39
2023/10/31 03:15:53;;;;;;;23.63;21.47;;;;;;;10.77;100.00;99276.41;5049423;28;20474;-38
2023/10/31 03:18:21;;;;;;;26.77;24.27;;;;;;;10.75;100.00;99273.94;5049332;28;20823;-39
2023/10/31 03:20:49;;;;;;;24.73;22.60;;;;;;;10.75;100.00;99273.94;5049269;28;20854;-38
2023/10/31 03:23:17;;;;;;;30.37;23.47;;;;;;;10.73;100.00;99265.38;5049288;28;20427;-39
2023/10/31 03:25:44;;;;;;;26.97;24.43;;;;;;;10.71;100.00;99270.16;5049106;28;20795;-38
2023/10/31 03:28:19;;;;;;;25.80;23.53;;;;;;;10.71;100.00;99266.66;5048871;28;20485;-39
2023/10/31 03:30:47;;;;;;;28.17;25.57;;;;;;;10.72;100.00;99268.28;5048106;28;20561;-39
2023/10/31 03:33:17;;;;;;;27.53;25.10;;;;;;;10.69;100.00;99258.91;5049141;28;20435;-38
2023/10/31 03:35:45;;;;;;;29.37;26.57;;;;;;;10.68;100.00;99259.13;5049548;28;20481;-38
2023/10/31 03:38:14;;;;;;;28.33;25.57;;;;;;;10.69;100.00;99255.44;5049338;28;20541;-38
2023/10/31 03:40:42;;;;;;;28.27;25.40;;;;;;;10.67;100.00;99252.97;5048086;28;20494;-38
2023/10/31 03:43:10;;;;;;;29.90;26.90;;;;;;;10.66;100.00;99251.38;5050013;28;21034;-39
2023/10/31 03:45:37;;;;;;;27.30;24.80;;;;;;;10.68;100.00;99259.94;5048960;28;20435;-38
2023/10/31 03:48:05;;;;;;;23.70;21.80;;;;;;;10.70;100.00;99251.69;5055199;28;20966;-38
2023/10/31 03:50:34;;;;;;;21.37;19.70;;;;;;;10.73;100.00;99254.72;5054053;28;20923;-39
2023/10/31 03:53:02;;;;;;;20.97;19.37;;;;;;;10.74;100.00;99259.03;5055011;28;20431;-40
2023/10/31 03:55:30;;;;;;;21.77;19.83;;;;;;;10.77;100.00;99258.56;5055153;28;20467;-39
2023/10/31 03:57:58;;;;;;;21.13;19.50;;;;;;;10.82;100.00;99252.50;5054610;28;20457;-39
2023/10/31 04:00:26;;;;;;;20.17;18.67;;;;;;;10.83;100.00;99256.81;5055091;28;20498;-38
2023/10/31 04:02:53;;;;;;;21.00;19.57;;;;;;;10.83;100.00;99252.28;5055909;28;20493;-39
2023/10/31 04:05:22;;;;;;;21.27;19.80;;;;;;;10.81;100.00;99248.22;5059231;28;20934;-40
2023/10/31 04:07:52;;;;;;;20.53;19.03;;;;;;;10.82;100.00;99247.97;5059636;28;20482;-40
2023/10/31 04:10:20;;;;;;;19.47;17.80;;;;;;;10.87;100.00;99247.28;5057150;28;20470;-38
2023/10/31 04:12:48;;;;;;;21.00;19.40;;;;;;;10.87;100.00;99247.28;5058780;28;20428;-38
2023/10/31 04:15:16;;;;;;;19.53;17.97;;;;;;;10.87;100.00;99247.28;5056782;28;20522;-38
2023/10/31 04:17:44;;;;;;;19.20;17.90;;;;;;;10.88;100.00;99247.03;5057350;28;20865;-38
2023/10/31 04:20:12;;;;;;;20.67;19.27;;;;;;;10.85;100.00;99244.03;5058077;28;20462;-40
2023/10/31 04:22:40;;;;;;;20.43;19.00;;;;;;;10.83;100.00;99240.81;5058951;28;20488;-38
2023/10/31 04:25:09;;;;;;;20.73;18.87;;;;;;;10.81;100.00;99237.56;5058734;28;20438;-38
2023/10/31 04:27:37;;;;;;;20.07;18.47;;;;;;;10.74;100.00;99237.69;5057508;28;21139;-37
2023/10/31 04:30:06;;;;;;;19.70;18.60;;;;;;;10.72;100.00;99229.09;5058146;28;20539;-40
2023/10/31 04:32:33;;;;;;;20.97;19.73;;;;;;;10.60;100.00;99219.50;5058323;28;20431;-38
2023/10/31 04:35:01;;;;;;;21.90;20.70;;;;;;;10.50;100.00;99222.75;5060470;28;20497;-38
2023/10/31 04:37:29;;;;;;;29.27;27.57;;;;;;;10.34;100.00;99224.25;5057288;28;21016;-39
2023/10/31 04:40:01;;;;;;;32.30;30.60;;;;;;;10.28;100.00;99219.03;5057753;28;20490;-38
2023/10/31 04:42:30;;;;;;;32.93;31.13;;;;;;;10.22;100.00;99219.97;5053971;28;20828;-38
2023/10/31 04:44:58;;;;;;;30.07;28.60;;;;;;;10.20;100.00;99216.72;5056731;28;20475;-38
2023/10/31 04:47:26;;;;;;;26.73;25.10;;;;;;;10.12;100.00;99207.19;5055887;28;20455;-38
2023/10/31 04:49:54;;;;;;;25.47;23.87;;;;;;;10.05;100.00;99213.66;5057638;28;20491;-38
2023/10/31 04:52:22;;;;;;;23.87;22.67;;;;;;;10.03;100.00;99211.25;5057102;28;20477;-40
2023/10/31 04:54:50;;;;;;;22.67;21.13;;;;;;;9.93;100.00;99218.97;5056155;28;20803;-39
2023/10/31 04:57:18;;;;;;;22.90;21.70;;;;;;;9.90;100.00;99206.94;5055936;28;20451;-39
2023/10/31 04:59:47;;;;;;;21.30;20.20;;;;;;;9.92;100.00;99214.69;5056673;28;20493;-38
2023/10/31 05:02:14;;;;;;;20.03;18.57;;;;;;;9.88;100.00;99217.00;5058051;28;20514;-38
2023/10/31 05:04:42;;;;;;;18.43;17.37;;;;;;;9.88;100.00;99203.69;5056590;28;20439;-38
2023/10/31 05:07:12;;;;;;;17.23;16.23;;;;;;;9.86;100.00;99192.44;5056993;28;20451;-39
2023/10/31 05:09:41;;;;;;;17.00;15.83;;;;;;;9.79;100.00;99197.09;5057297;28;20455;-39
2023/10/31 05:12:13;;;;;;;17.70;16.70;;;;;;;9.79;100.00;99193.59;5057456;28;20482;-38
2023/10/31 05:14:41;;;;;;;27.50;26.30;;;;;;;9.78;100.00;99205.28;5056954;28;20457;-39
2023/10/31 05:17:10;;;;;;;20.80;19.60;;;;;;;9.78;100.00;99200.78;5056818;28;20572;-38
2023/10/31 05:19:38;;;;;;;19.20;18.20;;;;;;;9.79;100.00;99196.28;5057193;28;20459;-38
2023/10/31 05:22:06;;;;;;;18.80;17.70;;;;;;;9.78;100.00;99190.13;5057548;28;20427;-38
2023/10/31 05:24:33;;;;;;;20.10;18.70;;;;;;;9.84;100.00;99193.72;5057057;28;20511;-38
2023/10/31 05:27:01;;;;;;;18.57;17.47;;;;;;;9.85;100.00;99204.16;5056681;28;21310;-38
2023/10/31 05:29:30;;;;;;;17.30;16.50;;;;;;;9.85;100.00;99196.16;5057087;28;20465;-38
2023/10/31 05:31:58;;;;;;;16.93;16.23;;;;;;;9.87;100.00;99194.09;5056937;28;20491;-38
2023/10/31 05:34:27;;;;;;;17.10;16.10;;;;;;;9.87;100.00;99194.09;5058289;28;20489;-39
2023/10/31 05:36:55;;;;;;;17.47;16.30;;;;;;;9.91;100.00;99205.91;5056578;28;20542;-38
2023/10/31 05:39:22;;;;;;;17.23;16.33;;;;;;;9.93;100.00;99195.00;5056621;28;20825;-38
2023/10/31 05:41:50;;;;;;;17.00;15.93;;;;;;;9.94;100.00;99193.97;5055901;28;20451;-38
2023/10/31 05:44:18;;;;;;;17.13;15.67;;;;;;;9.91;100.00;99194.44;5057938;28;20435;-38
2023/10/31 05:46:45;;;;;;;17.50;16.20;;;;;;;9.90;100.00;99187.47;5056782;28;20600;-38
2023/10/31 05:49:13;;;;;;;17.27;16.20;;;;;;;9.91;100.00;99192.59;5055856;28;20459;-39
2023/10/31 05:51:43;;;;;;;16.63;15.93;;;;;;;9.91;100.00;99165.97;5056980;28;20501;-38
2023/10/31 05:54:11;;;;;;;16.57;15.63;;;;;;;9.90;100.00;99163.53;5056474;28;20538;-38
2023/10/31 05:56:39;;;;;;;17.20;16.20;;;;;;;9.93;100.00;99173.72;5057626;28;20763;-38
2023/10/31 05:59:07;;;;;;;17.20;16.20;;;;;;;9.92;100.00;99172.06;5056698;28;20466;-38
2023/10/31 06:01:35;;;;;;;18.10;17.20;;;;;;;9.89;100.00;99167.22;5057461;28;20462;-38
2023/10/31 06:04:03;;;;;;;18.80;17.80;;;;;;;9.87;100.00;99177.28;5055866;28;20523;-38
2023/10/31 06:06:32;;;;;;;18.03;16.73;;;;;;;9.86;100.00;99183.66;5056228;28;20451;-38
2023/10/31 06:09:01;;;;;;;17.17;16.13;;;;;;;9.86;100.00;99188.97;5057258;28;20482;-38
2023/10/31 06:11:29;;;;;;;17.37;16.43;;;;;;;9.84;100.00;99191.06;5056753;28;20467;-38
2023/10/31 06:13:56;;;;;;;18.20;16.97;;;;;;;9.85;100.00;99184.72;5057980;28;20466;-38
2023/10/31 06:16:24;;;;;;;18.93;17.13;;;;;;;9.85;100.00;99211.34;5057228;28;20462;-38
2023/10/31 06:18:52;;;;;;;17.37;16.13;;;;;;;9.83;100.00;99214.22;5055450;28;20459;-37
2023/10/31 06:21:20;;;;;;;16.73;15.63;;;;;;;9.79;100.00;99202.41;5056799;28;20862;-38
2023/10/31 06:23:48;;;;;;;16.53;15.60;;;;;;;9.76;100.00;99202.06;5057415;28;20435;-37
2023/10/31 06:26:17;;;;;;;15.17;14.27;;;;;;;9.74;100.00;99204.09;5056709;28;20431;-40
2023/10/31 06:28:45;;;;;;;15.30;14.30;;;;;;;9.73;100.00;99194.53;5056162;28;20986;-38
2023/10/31 06:31:29;;;;;;;15.17;14.37;;;;;;;9.71;100.00;99208.03;5056835;28;20526;-38
2023/10/31 06:33:57;;;;;;;14.30;13.40;;;;;;;9.69;100.00;99202.16;5057917;28;20806;-38
2023/10/31 06:36:25;;;;;;;14.73;13.93;;;;;;;9.70;100.00;99208.28;5057427;28;20462;-38
2023/10/31 06:38:52;;;;;;;14.67;13.67;;;;;;;9.72;100.00;99211.53;5057216;28;20470;-38
2023/10/31 06:41:22;;;;;;;13.60;13.00;;;;;;;9.69;100.00;99211.97;5058081;28;20466;-39
2023/10/31 06:43:49;;;;;;;13.80;13.20;;;;;;;9.67;100.00;99212.22;5057735;28;20455;-38
2023/10/31 06:46:17;;;;;;;14.57;13.77;;;;;;;9.68;100.00;99218.34;5056484;28;20439;-38
2023/10/31 06:48:45;;;;;;;13.90;13.20;;;;;;;9.67;100.00;99214.88;5055750;28;20461;-38
2023/10/31 06:51:13;;;;;;;16.13;14.90;;;;;;;9.70;100.00;99216.28;5056088;28;20475;-39
2023/10/31 06:53:40;;;;;;;15.47;14.50;;;;;;;9.70;100.00;99225.06;5057388;28;20498;-39
2023/10/31 06:56:08;;;;;;;17.53;16.73;;;;;;;9.69;100.00;99218.13;5057772;28;20847;-42
2023/10/31 06:58:37;;;;;;;18.30;17.30;;;;;;;9.67;100.00;99220.22;5056864;28;20435;-41
2023/10/31 07:01:05;;;;;;;20.07;18.97;;;;;;;9.69;100.00;99227.94;5057686;28;20462;-39
2023/10/31 07:03:33;;;;;;;22.87;21.30;;;;;;;9.67;100.00;99217.53;5056564;28;20539;-38
2023/10/31 07:06:01;;;;;;;23.60;22.47;;;;;;;9.69;100.00;99223.44;5056337;28;20442;-38
2023/10/31 07:08:29;;;;;;;20.30;19.30;;;;;;;9.70;100.00;99218.94;5057937;28;20431;-41
2023/10/31 07:10:57;;;;;;;20.37;19.20;;;;;;;9.70;100.00;99208.28;5057357;28;20432;-39
2023/10/31 07:13:28;;;;;;;22.03;21.10;;;;;;;9.71;100.00;99218.69;5058162;28;20514;-39
2023/10/31 07:15:57;;;;;;;28.67;27.20;;;;;;;9.70;100.00;99222.41;5056948;28;20923;-39
2023/10/31 07:18:25;;;;;;;22.87;21.73;;;;;;;9.70;100.00;99225.06;5057059;28;20459;-39
2023/10/31 07:20:54;;;;;;;21.30;20.20;;;;;;;9.71;100.00;99224.00;5057198;28;20507;-39
2023/10/31 07:23:22;;;;;;;22.70;21.57;;;;;;;9.76;100.00;99228.66;5055978;28;20915;-38
2023/10/31 07:25:50;;;;;;;19.37;18.37;;;;;;;9.77;100.00;99230.28;5056647;28;20435;-41
2023/10/31 07:28:18;;;;;;;20.87;19.87;;;;;;;9.79;100.00;99231.69;5055531;28;21022;-39
2023/10/31 07:30:46;;;;;;;21.80;20.90;;;;;;;9.80;100.00;99235.16;5056052;28;20448;-39
2023/10/31 07:33:15;;;;;;;19.83;18.57;;;;;;;9.81;100.00;99239.44;5056221;28;20475;-39
2023/10/31 07:35:43;;;;;;;20.37;19.37;;;;;;;9.78;100.00;99246.03;5056341;28;20489;-38
2023/10/31 07:38:11;;;;;;;18.73;17.63;;;;;;;9.78;100.00;99253.22;5056100;28;20451;-39
2023/10/31 07:40:38;;;;;;;21.50;20.60;;;;;;;9.73;100.00;99253.91;5056076;28;20459;-39
2023/10/31 07:43:06;;;;;;;23.33;22.33;;;;;;;9.73;100.00;99251.25;5056281;28;20423;-39
2023/10/31 07:45:34;;;;;;;19.93;19.20;;;;;;;9.71;100.00;99247.16;5056405;28;20463;-40
2023/10/31 07:48:02;;;;;;;18.90;18.30;;;;;;;9.61;100.00;99246.91;5056833;28;20461;-39
2023/10/31 07:50:32;;;;;;;15.60;15.10;;;;;;;9.50;100.00;99250.34;5056176;28;20451;-38
2023/10/31 07:53:00;;;;;;;15.87;15.43;;;;;;;9.43;100.00;99269.88;5055769;28;20614;-39
2023/10/31 07:55:28;;;;;;;16.83;16.30;;;;;;;9.32;100.00;99262.63;5055538;28;20439;-39
2023/10/31 07:57:56;;;;;;;15.33;14.80;;;;;;;9.30;100.00;99254.06;5056787;28;20815;-39
2023/10/31 08:00:24;;;;;;;17.60;17.00;;;;;;;9.30;100.00;99277.19;5056851;28;20455;-41
2023/10/31 08:02:52;;;;;;;15.60;14.77;;;;;;;9.11;100.00;99272.94;5056438;28;20431;-39
2023/10/31 08:05:22;;;;;;;16.00;15.50;;;;;;;9.04;100.00;99277.50;5057351;28;20439;-38
2023/10/31 08:07:51;;;;;;;15.67;15.07;;;;;;;8.97;100.00;99282.09;5056620;28;20444;-38
2023/10/31 08:10:19;;;;;;;14.90;14.40;;;;;;;8.93;100.00;99278.25;5055168;28;20459;-38
2023/10/31 08:12:46;;;;;;;13.93;13.50;;;;;;;8.89;100.00;99275.22;5055540;28;20466;-38
2023/10/31 08:15:15;;;;;;;12.70;12.30;;;;;;;8.82;100.00;99301.88;5055470;28;20432;-40
2023/10/31 08:17:43;;;;;;;15.90;15.40;;;;;;;8.74;100.00;99283.56;5056343;28;20451;-41
2023/10/31 08:20:13;;;;;;;14.20;13.70;;;;;;;8.70;100.00;99279.72;5056281;28;20491;-39
2023/10/31 08:22:43;;;;;;;17.13;16.40;;;;;;;8.65;100.00;99287.53;5056206;28;20439;-38
2023/10/31 08:25:12;;;;;;;13.23;12.93;;;;;;;8.53;100.00;99299.09;5056601;28;20466;-38
2023/10/31 08:27:40;;;;;;;15.67;15.20;;;;;;;8.50;100.00;99312.81;5056042;28;20458;-39
2023/10/31 08:30:09;;;;;;;14.63;14.23;;;;;;;8.48;100.00;99310.38;5056605;28;20912;-40
2023/10/31 08:32:37;;;;;;;17.27;16.77;;;;;;;8.51;100.00;99312.56;5055719;28;20902;-38
2023/10/31 08:35:06;;;;;;;17.50;17.00;;;;;;;8.50;100.00;99318.94;5057127;28;20431;-38
2023/10/31 08:37:33;;;;;;;16.53;16.03;;;;;;;8.48;100.00;99325.50;5056110;28;20451;-40
2023/10/31 08:40:03;;;;;;;14.50;14.00;;;;;;;8.39;100.00;99334.78;5056319;28;20456;-39
2023/10/31 08:42:32;;;;;;;14.50;14.00;;;;;;;8.31;100.00;99338.50;5056225;28;20435;-38
2023/10/31 08:45:00;;;;;;;14.50;14.10;;;;;;;8.29;100.00;99352.00;5056297;28;20430;-39
2023/10/31 08:47:28;;;;;;;14.30;13.70;;;;;;;8.30;100.00;99364.25;5056566;28;20455;-38
2023/10/31 08:49:56;;;;;;;15.23;14.63;;;;;;;8.25;100.00;99353.41;5057479;28;20482;-39
2023/10/31 08:52:24;;;;;;;13.70;13.13;;;;;;;8.22;100.00;99372.44;5060643;28;20431;-41
2023/10/31 08:54:52;;;;;;;14.37;13.80;;;;;;;8.18;100.00;99368.56;5053194;28;20474;-41
2023/10/31 08:57:19;;;;;;;13.67;13.27;;;;;;;8.15;100.00;99379.63;5051405;28;20516;-39
2023/10/31 08:59:49;;;;;;;11.60;11.20;;;;;;;8.04;100.00;99390.94;5051778;28;21001;-39
2023/10/31 09:02:17;;;;;;;12.33;11.93;;;;;;;7.96;100.00;99375.25;5051777;28;20435;-41
2023/10/31 09:04:44;;;;;;;13.40;13.00;;;;;;;7.97;100.00;99384.03;5051616;28;20427;-42
2023/10/31 09:07:12;;;;;;;13.40;13.00;;;;;;;7.97;100.00;99376.91;5051422;28;20455;-39
2023/10/31 09:09:40;;;;;;;13.27;12.87;;;;;;;7.93;100.00;99422.66;5051250;28;20459;-42
2023/10/31 09:12:09;;;;;;;12.13;11.83;;;;;;;7.92;100.00;99399.78;5052254;28;20521;-44
2023/10/31 09:14:36;;;;;;;13.47;13.17;;;;;;;7.91;100.00;99403.47;5052418;28;20525;-43
2023/10/31 09:17:05;;;;;;;13.10;12.70;;;;;;;7.89;100.00;99405.50;5051754;28;20612;-42
2023/10/31 09:19:33;;;;;;;12.27;11.87;;;;;;;7.88;100.00;99420.63;5051572;28;20466;-45
2023/10/31 09:22:01;;;;;;;11.80;11.37;;;;;;;7.86;100.00;99443.91;5051513;28;20443;-44
2023/10/31 09:24:29;;;;;;;11.50;11.10;;;;;;;7.95;100.00;99447.13;5051310;28;20431;-46
2023/10/31 09:26:56;;;;;;;12.40;12.10;;;;;;;7.94;100.00;99442.88;5050764;28;20542;-42
2023/10/31 09:29:24;;;;;;;12.00;11.40;;;;;;;7.89;100.00;99448.78;5050195;28;20455;-43
2023/10/31 09:31:57;;;;;;;11.43;11.13;;;;;;;7.90;100.00;99460.22;5049858;28;20475;-40
2023/10/31 09:34:26;;;;;;;10.70;10.50;;;;;;;7.87;100.00;99471.25;5050841;28;20467;-40
2023/10/31 09:36:54;;;;;;;13.70;13.20;;;;;;;7.89;100.00;99474.50;5051138;28;20849;-43
2023/10/31 09:39:22;;;;;;;12.80;12.47;;;;;;;7.87;100.00;99473.91;5050645;28;20890;-42
2023/10/31 09:41:50;;;;;;;12.73;12.43;;;;;;;7.79;100.00;99469.66;5050633;28;20435;-40
2023/10/31 09:44:21;;;;;;;13.50;13.10;;;;;;;7.67;100.00;99477.47;5051727;28;21040;-40
2023/10/31 09:46:51;;;;;;;14.00;13.50;;;;;;;7.65;100.00;99482.16;5050251;28;20473;-45
2023/10/31 09:49:19;;;;;;;13.30;12.90;;;;;;;7.54;100.00;99492.59;5051643;28;20873;-40
2023/10/31 09:51:48;;;;;;;13.57;13.17;;;;;;;7.47;100.00;99497.91;5050551;28;20438;-44
2023/10/31 09:54:18;;;;;;;12.60;12.30;;;;;;;7.45;100.00;99497.28;5050503;28;20471;-40
2023/10/31 09:56:45;;;;;;;12.50;12.20;;;;;;;7.39;100.00;99506.06;5049892;28;20978;-42
2023/10/31 09:59:15;;;;;;;12.57;12.23;;;;;;;7.42;100.00;99520.75;5051226;28;20887;-41
2023/10/31 10:01:43;;;;;;;11.20;10.90;;;;;;;7.29;100.00;99521.56;5050616;28;20443;-43
2023/10/31 10:04:11;;;;;;;11.90;11.60;;;;;;;7.26;100.00;99540.53;5050534;28;21102;-41
2023/10/31 10:06:50;;;;;;;13.33;12.80;;;;;;;7.25;100.00;99541.59;5051531;28;20830;-40
2023/10/31 10:09:19;;;;;;;13.77;13.37;;;;;;;7.25;100.00;99546.88;5050996;28;20986;-42
2023/10/31 10:11:47;;;;;;;14.03;13.53;;;;;;;7.22;100.00;99563.22;5051314;28;20435;-41
2023/10/31 10:14:14;;;;;;;15.07;14.30;;;;;;;7.28;100.00;99559.75;5043335;28;20566;-40
2023/10/31 10:16:42;;;;;;;14.80;14.30;;;;;;;7.35;100.00;99567.69;5051672;28;20512;-42
2023/10/31 10:19:19;;;;;;;15.03;14.63;;;;;;;7.24;100.00;99567.28;5050855;28;20466;-39
2023/10/31 10:21:48;;;;;;;16.03;15.43;;;;;;;7.28;100.00;99574.84;5051301;28;20431;-43
2023/10/31 10:24:16;;;;;;;15.83;15.13;;;;;;;7.28;100.00;99580.13;5051062;28;20474;-43
2023/10/31 10:26:45;;;;;;;14.80;14.40;;;;;;;7.22;100.00;99585.25;5050714;28;20537;-40
2023/10/31 10:29:13;;;;;;;16.63;16.13;;;;;;;7.22;100.00;99587.91;5050151;28;21057;-43
2023/10/31 10:31:41;;;;;;;16.03;15.53;;;;;;;7.15;100.00;99587.06;5051514;28;20500;-45
2023/10/31 10:34:10;;;;;;;15.07;14.50;;;;;;;7.02;100.00;99591.50;5050682;28;20497;-42
2023/10/31 10:36:37;;;;;;;15.20;14.70;;;;;;;6.92;100.00;99591.09;5051217;28;20883;-43
2023/10/31 10:39:07;;;;;;;15.00;14.60;;;;;;;6.87;100.00;99596.19;5050929;28;20493;-40
2023/10/31 10:41:36;;;;;;;16.47;15.97;;;;;;;6.85;100.00;99603.50;5050625;28;20518;-40
2023/10/31 10:44:07;;;;;;;16.10;15.40;;;;;;;6.83;100.00;99602.91;5050135;28;20514;-40
2023/10/31 10:46:36;;;;;;;15.43;14.90;;;;;;;6.79;100.00;99610.44;5050587;28;20451;-44
2023/10/31 10:49:06;;;;;;;15.13;14.60;;;;;;;6.76;100.00;99610.00;5050502;28;20459;-39
2023/10/31 10:51:45;;;;;;;14.10;13.60;;;;;;;6.67;100.00;99619.97;5051475;28;20493;-42
2023/10/31 10:54:20;;;;;;;11.60;11.30;;;;;;;6.61;100.00;99629.53;5051171;28;20580;-42
2023/10/31 10:56:55;;;;;;;11.03;10.73;;;;;;;6.64;100.00;99629.13;5049706;28;20450;-41
2023/10/31 10:59:36;;;;;;;9.80;9.60;;;;;;;6.48;100.00;99639.25;5049678;28;20478;-39
2023/10/31 11:02:04;;;;;;;10.20;9.90;;;;;;;6.40;100.00;99628.81;5050530;28;20463;-39
2023/10/31 11:04:33;;;;;;;9.47;9.07;;;;;;;6.44;100.00;99632.72;5050064;28;20465;-40
2023/10/31 11:07:02;;;;;;;9.50;9.30;;;;;;;6.40;100.00;99642.06;5049769;28;20496;-39
2023/10/31 11:09:31;;;;;;;10.50;10.10;;;;;;;6.35;100.00;99644.47;5050313;28;20489;-44
2023/10/31 11:12:00;;;;;;;12.10;11.70;;;;;;;6.30;100.00;99644.25;5050149;28;20463;-44
2023/10/31 11:14:31;;;;;;;12.90;12.50;;;;;;;6.31;100.00;99648.53;5050249;28;20554;-40
2023/10/31 11:17:02;;;;;;;12.60;12.30;;;;;;;6.39;100.00;99657.13;5050452;28;20836;-44
2023/10/31 11:19:31;;;;;;;11.70;11.40;;;;;;;6.33;100.00;99668.50;5049933;28;20847;-39